Ada, South Dakota
Current Conditions -  °F | °C
As of 9:53 PM on Saturday 25 Oct 2014 (Local Time) from KHEI Reporting Station
Clear Clear  
Wind Chill: 50°   Ceiling: Unl
Heat Index: 50°   Visibility: 10mi
Dew Point: 29°   Wind: 14mph
Humidity: 44%   Direction: 130°SE
Pressure: 29.86"   Gusts: NA
Location:  45.5161°N, 102.519°W
Report Text: KHEI 260353Z AUTO 13012KT 10SM CLR 10/M02 A2986 RMK AO2 SLP114 T01001017
Loading
Personal Weather Stations






























Interactive Weather Map
Tropical Storm Tracking
New forecast layout! Learn more

10-Day Weather Forecast

Advertisements
Track Severe Weather on mobile